sensor_id;sensor_type;location;lat;lon;timestamp;P1;durP1;ratioP1;P2;durP2;ratioP2
66402;SDS011;53212;52.112;5.144;2023-03-14T00:01:40;18.60;;;4.70;;
66402;SDS011;53212;52.112;5.144;2023-03-14T00:04:09;16.70;;;5.00;;
66402;SDS011;53212;52.112;5.144;2023-03-14T00:06:34;23.10;;;4.90;;
66402;SDS011;53212;52.112;5.144;2023-03-14T00:09:00;18.70;;;5.60;;
66402;SDS011;53212;52.112;5.144;2023-03-14T00:11:25;14.00;;;4.10;;
66402;SDS011;53212;52.112;5.144;2023-03-14T00:13:51;17.20;;;4.70;;
66402;SDS011;53212;52.112;5.144;2023-03-14T00:16:17;15.70;;;4.70;;
66402;SDS011;53212;52.112;5.144;2023-03-14T00:18:43;18.50;;;5.50;;
66402;SDS011;53212;52.112;5.144;2023-03-14T00:21:09;17.70;;;4.70;;
66402;SDS011;53212;52.112;5.144;2023-03-14T00:23:37;15.40;;;3.90;;
66402;SDS011;53212;52.112;5.144;2023-03-14T00:26:13;13.10;;;4.20;;
66402;SDS011;53212;52.112;5.144;2023-03-14T00:28:41;16.00;;;3.70;;
66402;SDS011;53212;52.112;5.144;2023-03-14T00:31:08;11.80;;;3.30;;
66402;SDS011;53212;52.112;5.144;2023-03-14T00:33:35;14.70;;;3.80;;
66402;SDS011;53212;52.112;5.144;2023-03-14T00:36:04;14.90;;;3.80;;
66402;SDS011;53212;52.112;5.144;2023-03-14T00:38:33;14.00;;;3.90;;
66402;SDS011;53212;52.112;5.144;2023-03-14T00:41:03;11.10;;;3.40;;
66402;SDS011;53212;52.112;5.144;2023-03-14T00:43:30;10.50;;;2.90;;
66402;SDS011;53212;52.112;5.144;2023-03-14T00:45:56;7.20;;;2.20;;
66402;SDS011;53212;52.112;5.144;2023-03-14T00:48:22;9.20;;;2.40;;
66402;SDS011;53212;52.112;5.144;2023-03-14T00:50:48;8.70;;;2.40;;
66402;SDS011;53212;52.112;5.144;2023-03-14T00:53:13;6.90;;;2.10;;
66402;SDS011;53212;52.112;5.144;2023-03-14T00:55:40;7.30;;;2.20;;
66402;SDS011;53212;52.112;5.144;2023-03-14T00:58:07;6.20;;;2.30;;
66402;SDS011;53212;52.112;5.144;2023-03-14T01:00:33;10.00;;;2.30;;
66402;SDS011;53212;52.112;5.144;2023-03-14T01:03:00;7.10;;;2.60;;
66402;SDS011;53212;52.112;5.144;2023-03-14T01:05:26;10.40;;;3.20;;
66402;SDS011;53212;52.112;5.144;2023-03-14T01:07:52;6.50;;;2.20;;
66402;SDS011;53212;52.112;5.144;2023-03-14T01:10:18;6.40;;;2.60;;
66402;SDS011;53212;52.112;5.144;2023-03-14T01:12:43;7.30;;;2.70;;
66402;SDS011;53212;52.112;5.144;2023-03-14T01:15:09;10.40;;;3.00;;
66402;SDS011;53212;52.112;5.144;2023-03-14T01:17:35;9.90;;;2.80;;
66402;SDS011;53212;52.112;5.144;2023-03-14T01:20:03;9.00;;;2.70;;
66402;SDS011;53212;52.112;5.144;2023-03-14T01:22:30;8.90;;;2.20;;
66402;SDS011;53212;52.112;5.144;2023-03-14T01:24:55;7.80;;;2.20;;
66402;SDS011;53212;52.112;5.144;2023-03-14T01:27:21;9.20;;;2.90;;
66402;SDS011;53212;52.112;5.144;2023-03-14T01:29:46;7.30;;;2.50;;
66402;SDS011;53212;52.112;5.144;2023-03-14T01:32:12;9.50;;;2.30;;
66402;SDS011;53212;52.112;5.144;2023-03-14T01:34:38;9.30;;;2.30;;
66402;SDS011;53212;52.112;5.144;2023-03-14T01:37:03;9.90;;;2.30;;
66402;SDS011;53212;52.112;5.144;2023-03-14T01:39:29;8.90;;;2.40;;
66402;SDS011;53212;52.112;5.144;2023-03-14T01:41:54;9.30;;;2.50;;
66402;SDS011;53212;52.112;5.144;2023-03-14T01:44:20;9.00;;;1.90;;
66402;SDS011;53212;52.112;5.144;2023-03-14T01:46:45;10.50;;;2.90;;
66402;SDS011;53212;52.112;5.144;2023-03-14T01:49:28;11.30;;;2.70;;
66402;SDS011;53212;52.112;5.144;2023-03-14T01:59:37;9.20;;;2.20;;
66402;SDS011;53212;52.112;5.144;2023-03-14T02:02:07;7.50;;;2.30;;
66402;SDS011;53212;52.112;5.144;2023-03-14T02:04:35;5.20;;;2.00;;
66402;SDS011;53212;52.112;5.144;2023-03-14T02:09:39;9.40;;;2.40;;
66402;SDS011;53212;52.112;5.144;2023-03-14T02:12:08;15.50;;;2.50;;
66402;SDS011;53212;52.112;5.144;2023-03-14T02:14:36;8.90;;;2.00;;
66402;SDS011;53212;52.112;5.144;2023-03-14T02:17:04;8.30;;;2.20;;
66402;SDS011;53212;52.112;5.144;2023-03-14T02:22:14;7.40;;;2.10;;
66402;SDS011;53212;52.112;5.144;2023-03-14T02:27:41;8.60;;;2.00;;
66402;SDS011;53212;52.112;5.144;2023-03-14T02:30:11;8.40;;;2.20;;
66402;SDS011;53212;52.112;5.144;2023-03-14T02:32:43;6.80;;;1.90;;
66402;SDS011;53212;52.112;5.144;2023-03-14T02:35:14;15.20;;;2.50;;
66402;SDS011;53212;52.112;5.144;2023-03-14T02:38:07;3.60;;;1.60;;
66402;SDS011;53212;52.112;5.144;2023-03-14T02:40:39;6.80;;;1.80;;
66402;SDS011;53212;52.112;5.144;2023-03-14T02:43:05;7.50;;;2.10;;
66402;SDS011;53212;52.112;5.144;2023-03-14T02:45:39;7.40;;;1.90;;
66402;SDS011;53212;52.112;5.144;2023-03-14T02:48:24;7.30;;;2.60;;
66402;SDS011;53212;52.112;5.144;2023-03-14T02:53:24;7.10;;;2.10;;
66402;SDS011;53212;52.112;5.144;2023-03-14T02:55:52;6.20;;;2.30;;
66402;SDS011;53212;52.112;5.144;2023-03-14T02:58:18;7.30;;;2.30;;
66402;SDS011;53212;52.112;5.144;2023-03-14T03:00:44;7.30;;;2.50;;
66402;SDS011;53212;52.112;5.144;2023-03-14T03:03:10;6.60;;;2.20;;
66402;SDS011;53212;52.112;5.144;2023-03-14T03:05:35;9.30;;;2.50;;
66402;SDS011;53212;52.112;5.144;2023-03-14T03:08:01;9.00;;;2.30;;
66402;SDS011;53212;52.112;5.144;2023-03-14T03:10:27;5.70;;;2.00;;
66402;SDS011;53212;52.112;5.144;2023-03-14T03:12:53;7.50;;;2.60;;
66402;SDS011;53212;52.112;5.144;2023-03-14T03:15:18;8.00;;;2.50;;
66402;SDS011;53212;52.112;5.144;2023-03-14T03:17:44;8.60;;;2.30;;
66402;SDS011;53212;52.112;5.144;2023-03-14T03:20:10;6.70;;;2.20;;
66402;SDS011;53212;52.112;5.144;2023-03-14T03:22:36;8.50;;;2.30;;
66402;SDS011;53212;52.112;5.144;2023-03-14T03:25:06;10.90;;;2.80;;
66402;SDS011;53212;52.112;5.144;2023-03-14T03:27:33;10.60;;;2.80;;
66402;SDS011;53212;52.112;5.144;2023-03-14T03:29:59;10.30;;;2.40;;
66402;SDS011;53212;52.112;5.144;2023-03-14T03:32:26;10.40;;;2.70;;
66402;SDS011;53212;52.112;5.144;2023-03-14T03:34:51;7.10;;;2.10;;
66402;SDS011;53212;52.112;5.144;2023-03-14T03:37:17;10.30;;;2.80;;
66402;SDS011;53212;52.112;5.144;2023-03-14T03:39:43;5.60;;;2.20;;
66402;SDS011;53212;52.112;5.144;2023-03-14T03:42:08;11.20;;;2.50;;
66402;SDS011;53212;52.112;5.144;2023-03-14T03:44:34;10.80;;;2.60;;
66402;SDS011;53212;52.112;5.144;2023-03-14T03:47:00;9.30;;;1.90;;
66402;SDS011;53212;52.112;5.144;2023-03-14T03:49:29;8.30;;;2.30;;
66402;SDS011;53212;52.112;5.144;2023-03-14T03:51:55;7.00;;;2.30;;
66402;SDS011;53212;52.112;5.144;2023-03-14T03:54:21;8.80;;;2.60;;
66402;SDS011;53212;52.112;5.144;2023-03-14T03:56:46;7.80;;;2.30;;
66402;SDS011;53212;52.112;5.144;2023-03-14T03:59:11;10.50;;;2.90;;
66402;SDS011;53212;52.112;5.144;2023-03-14T04:01:37;9.10;;;2.60;;
66402;SDS011;53212;52.112;5.144;2023-03-14T04:04:02;10.50;;;2.40;;
66402;SDS011;53212;52.112;5.144;2023-03-14T04:06:28;8.00;;;2.50;;
66402;SDS011;53212;52.112;5.144;2023-03-14T04:08:54;7.50;;;2.30;;
66402;SDS011;53212;52.112;5.144;2023-03-14T04:11:19;7.20;;;2.50;;
66402;SDS011;53212;52.112;5.144;2023-03-14T04:13:45;7.30;;;2.80;;
66402;SDS011;53212;52.112;5.144;2023-03-14T04:16:16;6.50;;;2.50;;
66402;SDS011;53212;52.112;5.144;2023-03-14T04:18:43;8.80;;;2.00;;
66402;SDS011;53212;52.112;5.144;2023-03-14T04:21:09;8.90;;;2.70;;
66402;SDS011;53212;52.112;5.144;2023-03-14T04:23:34;6.30;;;2.20;;
66402;SDS011;53212;52.112;5.144;2023-03-14T04:26:00;10.10;;;2.30;;
66402;SDS011;53212;52.112;5.144;2023-03-14T04:28:25;8.20;;;2.30;;
66402;SDS011;53212;52.112;5.144;2023-03-14T04:30:51;7.90;;;2.50;;
66402;SDS011;53212;52.112;5.144;2023-03-14T04:33:16;6.50;;;2.20;;
66402;SDS011;53212;52.112;5.144;2023-03-14T04:35:45;6.30;;;2.30;;
66402;SDS011;53212;52.112;5.144;2023-03-14T04:38:12;7.10;;;2.60;;
66402;SDS011;53212;52.112;5.144;2023-03-14T04:40:41;7.90;;;2.20;;
66402;SDS011;53212;52.112;5.144;2023-03-14T04:43:08;6.00;;;2.20;;
66402;SDS011;53212;52.112;5.144;2023-03-14T04:45:35;6.30;;;2.50;;
66402;SDS011;53212;52.112;5.144;2023-03-14T04:48:01;10.10;;;3.00;;
66402;SDS011;53212;52.112;5.144;2023-03-14T04:50:27;5.50;;;1.80;;
66402;SDS011;53212;52.112;5.144;2023-03-14T04:52:52;6.20;;;2.00;;
66402;SDS011;53212;52.112;5.144;2023-03-14T04:55:18;5.30;;;1.80;;
66402;SDS011;53212;52.112;5.144;2023-03-14T04:57:43;9.70;;;2.50;;
66402;SDS011;53212;52.112;5.144;2023-03-14T05:00:09;6.70;;;2.50;;
66402;SDS011;53212;52.112;5.144;2023-03-14T05:02:35;5.80;;;1.70;;
66402;SDS011;53212;52.112;5.144;2023-03-14T05:05:01;7.60;;;2.10;;
66402;SDS011;53212;52.112;5.144;2023-03-14T05:07:26;9.20;;;2.20;;
66402;SDS011;53212;52.112;5.144;2023-03-14T05:09:52;4.90;;;2.10;;
66402;SDS011;53212;52.112;5.144;2023-03-14T05:12:18;6.70;;;2.30;;
66402;SDS011;53212;52.112;5.144;2023-03-14T05:14:44;6.60;;;2.00;;
66402;SDS011;53212;52.112;5.144;2023-03-14T05:17:10;7.70;;;2.10;;
66402;SDS011;53212;52.112;5.144;2023-03-14T05:19:36;6.10;;;2.30;;
66402;SDS011;53212;52.112;5.144;2023-03-14T05:22:02;4.90;;;1.90;;
66402;SDS011;53212;52.112;5.144;2023-03-14T05:24:27;4.40;;;2.30;;
66402;SDS011;53212;52.112;5.144;2023-03-14T05:26:53;7.00;;;2.20;;
66402;SDS011;53212;52.112;5.144;2023-03-14T05:29:18;4.10;;;2.10;;
66402;SDS011;53212;52.112;5.144;2023-03-14T05:31:44;5.10;;;2.20;;
66402;SDS011;53212;52.112;5.144;2023-03-14T05:34:09;4.20;;;1.90;;
66402;SDS011;53212;52.112;5.144;2023-03-14T05:36:35;6.20;;;2.20;;
66402;SDS011;53212;52.112;5.144;2023-03-14T05:39:00;3.80;;;2.00;;
66402;SDS011;53212;52.112;5.144;2023-03-14T05:41:26;5.30;;;2.20;;
66402;SDS011;53212;52.112;5.144;2023-03-14T05:43:51;6.10;;;2.20;;
66402;SDS011;53212;52.112;5.144;2023-03-14T05:46:16;4.30;;;2.20;;
66402;SDS011;53212;52.112;5.144;2023-03-14T05:48:42;4.40;;;2.70;;
66402;SDS011;53212;52.112;5.144;2023-03-14T05:51:07;5.90;;;3.00;;
66402;SDS011;53212;52.112;5.144;2023-03-14T05:53:33;5.40;;;2.60;;
66402;SDS011;53212;52.112;5.144;2023-03-14T05:55:58;4.40;;;2.60;;
66402;SDS011;53212;52.112;5.144;2023-03-14T05:58:24;5.50;;;2.60;;
66402;SDS011;53212;52.112;5.144;2023-03-14T06:00:50;7.00;;;3.00;;
66402;SDS011;53212;52.112;5.144;2023-03-14T06:03:15;3.70;;;3.00;;
66402;SDS011;53212;52.112;5.144;2023-03-14T06:05:41;5.70;;;3.60;;
66402;SDS011;53212;52.112;5.144;2023-03-14T06:08:06;4.70;;;3.40;;
66402;SDS011;53212;52.112;5.144;2023-03-14T06:10:32;4.70;;;3.00;;
66402;SDS011;53212;52.112;5.144;2023-03-14T06:12:57;6.00;;;3.50;;
66402;SDS011;53212;52.112;5.144;2023-03-14T06:15:23;5.70;;;3.60;;
66402;SDS011;53212;52.112;5.144;2023-03-14T06:17:48;5.60;;;3.30;;
66402;SDS011;53212;52.112;5.144;2023-03-14T06:20:14;6.00;;;2.90;;
66402;SDS011;53212;52.112;5.144;2023-03-14T06:22:39;3.60;;;2.20;;
66402;SDS011;53212;52.112;5.144;2023-03-14T06:25:06;3.20;;;1.70;;
66402;SDS011;53212;52.112;5.144;2023-03-14T06:27:32;4.00;;;1.30;;
66402;SDS011;53212;52.112;5.144;2023-03-14T06:29:57;2.70;;;1.10;;
66402;SDS011;53212;52.112;5.144;2023-03-14T06:32:23;4.10;;;0.90;;
66402;SDS011;53212;52.112;5.144;2023-03-14T06:34:49;4.50;;;1.00;;
66402;SDS011;53212;52.112;5.144;2023-03-14T06:37:15;2.70;;;1.00;;
66402;SDS011;53212;52.112;5.144;2023-03-14T06:39:40;3.20;;;1.00;;
66402;SDS011;53212;52.112;5.144;2023-03-14T06:42:06;2.50;;;0.90;;
66402;SDS011;53212;52.112;5.144;2023-03-14T06:44:31;2.50;;;1.20;;
66402;SDS011;53212;52.112;5.144;2023-03-14T06:46:57;3.30;;;1.00;;
66402;SDS011;53212;52.112;5.144;2023-03-14T06:49:22;3.60;;;1.00;;
66402;SDS011;53212;52.112;5.144;2023-03-14T06:51:48;2.10;;;0.80;;
66402;SDS011;53212;52.112;5.144;2023-03-14T06:54:13;2.30;;;0.80;;
66402;SDS011;53212;52.112;5.144;2023-03-14T06:56:39;2.90;;;0.70;;
66402;SDS011;53212;52.112;5.144;2023-03-14T06:59:04;2.10;;;1.00;;
66402;SDS011;53212;52.112;5.144;2023-03-14T07:01:30;2.00;;;0.60;;
66402;SDS011;53212;52.112;5.144;2023-03-14T07:03:57;2.10;;;0.70;;
66402;SDS011;53212;52.112;5.144;2023-03-14T07:06:23;3.10;;;0.80;;
66402;SDS011;53212;52.112;5.144;2023-03-14T07:08:50;2.20;;;1.00;;
66402;SDS011;53212;52.112;5.144;2023-03-14T07:11:15;2.20;;;1.10;;
66402;SDS011;53212;52.112;5.144;2023-03-14T07:13:41;2.30;;;0.90;;
66402;SDS011;53212;52.112;5.144;2023-03-14T07:16:06;2.40;;;1.10;;
66402;SDS011;53212;52.112;5.144;2023-03-14T07:18:33;3.50;;;0.90;;
66402;SDS011;53212;52.112;5.144;2023-03-14T07:20:59;1.30;;;0.70;;
66402;SDS011;53212;52.112;5.144;2023-03-14T07:23:24;3.50;;;1.10;;
66402;SDS011;53212;52.112;5.144;2023-03-14T07:25:50;1.80;;;0.60;;
66402;SDS011;53212;52.112;5.144;2023-03-14T07:28:16;3.70;;;1.20;;
66402;SDS011;53212;52.112;5.144;2023-03-14T07:30:42;2.20;;;0.80;;
66402;SDS011;53212;52.112;5.144;2023-03-14T07:33:07;3.50;;;1.70;;
66402;SDS011;53212;52.112;5.144;2023-03-14T07:35:33;2.00;;;0.80;;
66402;SDS011;53212;52.112;5.144;2023-03-14T07:37:58;2.40;;;0.90;;
66402;SDS011;53212;52.112;5.144;2023-03-14T07:40:23;2.50;;;1.00;;
66402;SDS011;53212;52.112;5.144;2023-03-14T07:42:49;3.00;;;0.80;;
66402;SDS011;53212;52.112;5.144;2023-03-14T07:45:15;2.10;;;0.90;;
66402;SDS011;53212;52.112;5.144;2023-03-14T07:47:40;2.90;;;0.70;;
66402;SDS011;53212;52.112;5.144;2023-03-14T07:50:07;2.30;;;0.80;;
66402;SDS011;53212;52.112;5.144;2023-03-14T07:52:33;2.00;;;1.00;;
66402;SDS011;53212;52.112;5.144;2023-03-14T07:54:58;2.20;;;1.20;;
66402;SDS011;53212;52.112;5.144;2023-03-14T07:57:24;2.90;;;0.90;;
66402;SDS011;53212;52.112;5.144;2023-03-14T07:59:49;3.10;;;1.10;;
66402;SDS011;53212;52.112;5.144;2023-03-14T08:02:15;4.70;;;1.10;;
66402;SDS011;53212;52.112;5.144;2023-03-14T08:04:41;3.70;;;1.40;;
66402;SDS011;53212;52.112;5.144;2023-03-14T08:07:07;4.10;;;1.70;;
66402;SDS011;53212;52.112;5.144;2023-03-14T08:09:32;2.30;;;1.20;;
66402;SDS011;53212;52.112;5.144;2023-03-14T08:11:58;3.40;;;1.20;;
66402;SDS011;53212;52.112;5.144;2023-03-14T08:14:23;4.20;;;1.30;;
66402;SDS011;53212;52.112;5.144;2023-03-14T08:16:50;3.60;;;1.30;;
66402;SDS011;53212;52.112;5.144;2023-03-14T08:19:16;5.10;;;1.70;;
66402;SDS011;53212;52.112;5.144;2023-03-14T08:21:41;4.60;;;1.50;;
66402;SDS011;53212;52.112;5.144;2023-03-14T08:24:06;5.70;;;1.10;;
66402;SDS011;53212;52.112;5.144;2023-03-14T08:26:32;2.70;;;0.80;;
66402;SDS011;53212;52.112;5.144;2023-03-14T08:28:58;5.10;;;1.30;;
66402;SDS011;53212;52.112;5.144;2023-03-14T08:31:23;4.10;;;1.10;;
66402;SDS011;53212;52.112;5.144;2023-03-14T08:33:49;4.40;;;1.40;;
66402;SDS011;53212;52.112;5.144;2023-03-14T08:36:17;5.40;;;1.20;;
66402;SDS011;53212;52.112;5.144;2023-03-14T08:38:43;2.70;;;0.70;;
66402;SDS011;53212;52.112;5.144;2023-03-14T08:41:09;4.40;;;1.00;;
66402;SDS011;53212;52.112;5.144;2023-03-14T08:43:35;4.20;;;1.00;;
66402;SDS011;53212;52.112;5.144;2023-03-14T08:46:01;2.10;;;0.90;;
66402;SDS011;53212;52.112;5.144;2023-03-14T08:48:27;4.20;;;1.30;;
66402;SDS011;53212;52.112;5.144;2023-03-14T08:50:56;2.30;;;1.00;;
66402;SDS011;53212;52.112;5.144;2023-03-14T08:53:22;3.80;;;1.10;;
66402;SDS011;53212;52.112;5.144;2023-03-14T08:55:54;4.80;;;1.30;;
66402;SDS011;53212;52.112;5.144;2023-03-14T08:58:19;4.80;;;1.40;;
66402;SDS011;53212;52.112;5.144;2023-03-14T09:00:45;7.70;;;1.90;;
66402;SDS011;53212;52.112;5.144;2023-03-14T09:03:10;5.80;;;1.80;;
66402;SDS011;53212;52.112;5.144;2023-03-14T09:05:36;7.40;;;1.70;;
66402;SDS011;53212;52.112;5.144;2023-03-14T09:08:01;7.60;;;2.10;;
66402;SDS011;53212;52.112;5.144;2023-03-14T09:10:27;7.30;;;2.10;;
66402;SDS011;53212;52.112;5.144;2023-03-14T09:12:52;9.00;;;2.20;;
66402;SDS011;53212;52.112;5.144;2023-03-14T09:15:18;8.10;;;2.30;;
66402;SDS011;53212;52.112;5.144;2023-03-14T09:17:43;5.70;;;1.80;;
66402;SDS011;53212;52.112;5.144;2023-03-14T09:20:10;12.20;;;2.40;;
66402;SDS011;53212;52.112;5.144;2023-03-14T09:22:36;16.50;;;3.50;;
66402;SDS011;53212;52.112;5.144;2023-03-14T09:25:05;8.90;;;2.50;;
66402;SDS011;53212;52.112;5.144;2023-03-14T09:27:31;8.70;;;2.40;;
66402;SDS011;53212;52.112;5.144;2023-03-14T09:29:56;8.70;;;2.70;;
66402;SDS011;53212;52.112;5.144;2023-03-14T09:32:22;13.60;;;3.10;;
66402;SDS011;53212;52.112;5.144;2023-03-14T09:34:47;8.80;;;2.70;;
66402;SDS011;53212;52.112;5.144;2023-03-14T09:37:13;11.10;;;3.50;;
66402;SDS011;53212;52.112;5.144;2023-03-14T09:39:40;14.60;;;2.80;;
66402;SDS011;53212;52.112;5.144;2023-03-14T09:42:06;10.30;;;2.70;;
66402;SDS011;53212;52.112;5.144;2023-03-14T09:44:39;12.30;;;2.80;;
66402;SDS011;53212;52.112;5.144;2023-03-14T09:49:45;11.40;;;2.60;;
66402;SDS011;53212;52.112;5.144;2023-03-14T09:52:28;11.20;;;2.90;;
66402;SDS011;53212;52.112;5.144;2023-03-14T09:55:00;11.50;;;2.80;;
66402;SDS011;53212;52.112;5.144;2023-03-14T09:57:29;12.60;;;3.40;;
66402;SDS011;53212;52.112;5.144;2023-03-14T10:00:14;10.60;;;2.80;;
66402;SDS011;53212;52.112;5.144;2023-03-14T10:02:41;9.90;;;2.70;;
66402;SDS011;53212;52.112;5.144;2023-03-14T10:05:18;10.60;;;3.00;;
66402;SDS011;53212;52.112;5.144;2023-03-14T10:07:45;10.40;;;2.30;;
66402;SDS011;53212;52.112;5.144;2023-03-14T10:10:21;8.80;;;2.70;;
66402;SDS011;53212;52.112;5.144;2023-03-14T10:15:48;12.10;;;3.20;;
66402;SDS011;53212;52.112;5.144;2023-03-14T10:18:18;10.90;;;3.00;;
66402;SDS011;53212;52.112;5.144;2023-03-14T10:20:48;8.60;;;2.20;;
66402;SDS011;53212;52.112;5.144;2023-03-14T10:25:42;12.20;;;3.00;;
66402;SDS011;53212;52.112;5.144;2023-03-14T10:28:30;14.60;;;3.00;;
66402;SDS011;53212;52.112;5.144;2023-03-14T10:30:58;14.00;;;3.40;;
66402;SDS011;53212;52.112;5.144;2023-03-14T10:33:27;16.40;;;4.60;;
66402;SDS011;53212;52.112;5.144;2023-03-14T10:38:36;15.50;;;3.10;;
66402;SDS011;53212;52.112;5.144;2023-03-14T10:41:03;13.00;;;3.20;;
66402;SDS011;53212;52.112;5.144;2023-03-14T10:43:41;13.40;;;3.10;;
66402;SDS011;53212;52.112;5.144;2023-03-14T10:46:14;14.10;;;3.40;;
66402;SDS011;53212;52.112;5.144;2023-03-14T10:48:42;23.40;;;4.40;;
66402;SDS011;53212;52.112;5.144;2023-03-14T10:53:55;14.70;;;3.00;;
66402;SDS011;53212;52.112;5.144;2023-03-14T10:56:23;14.50;;;3.60;;
66402;SDS011;53212;52.112;5.144;2023-03-14T10:58:51;16.00;;;3.70;;
66402;SDS011;53212;52.112;5.144;2023-03-14T11:15:14;15.90;;;3.40;;
66402;SDS011;53212;52.112;5.144;2023-03-14T11:27:04;15.20;;;3.30;;
66402;SDS011;53212;52.112;5.144;2023-03-14T11:29:40;15.20;;;3.30;;
66402;SDS011;53212;52.112;5.144;2023-03-14T11:35:20;17.60;;;3.70;;
66402;SDS011;53212;52.112;5.144;2023-03-14T11:38:10;14.00;;;3.40;;
66402;SDS011;53212;52.112;5.144;2023-03-14T11:40:39;11.50;;;2.50;;
66402;SDS011;53212;52.112;5.144;2023-03-14T11:45:39;16.10;;;3.60;;
66402;SDS011;53212;52.112;5.144;2023-03-14T11:50:44;9.90;;;2.40;;
66402;SDS011;53212;52.112;5.144;2023-03-14T11:56:11;10.20;;;2.30;;
66402;SDS011;53212;52.112;5.144;2023-03-14T11:58:51;10.40;;;2.40;;
66402;SDS011;53212;52.112;5.144;2023-03-14T12:01:25;12.80;;;2.60;;
66402;SDS011;53212;52.112;5.144;2023-03-14T12:04:02;6.40;;;1.90;;
66402;SDS011;53212;52.112;5.144;2023-03-14T12:06:48;11.60;;;2.60;;
66402;SDS011;53212;52.112;5.144;2023-03-14T12:09:19;10.00;;;2.60;;
66402;SDS011;53212;52.112;5.144;2023-03-14T12:11:51;4.90;;;1.60;;
66402;SDS011;53212;52.112;5.144;2023-03-14T12:16:57;8.80;;;2.10;;
66402;SDS011;53212;52.112;5.144;2023-03-14T12:22:56;7.90;;;1.90;;
66402;SDS011;53212;52.112;5.144;2023-03-14T12:25:29;6.70;;;1.90;;
66402;SDS011;53212;52.112;5.144;2023-03-14T12:33:11;7.70;;;2.10;;
66402;SDS011;53212;52.112;5.144;2023-03-14T12:35:51;10.60;;;1.90;;
66402;SDS011;53212;52.112;5.144;2023-03-14T12:38:42;9.20;;;2.10;;
66402;SDS011;53212;52.112;5.144;2023-03-14T12:41:28;7.10;;;2.00;;
66402;SDS011;53212;52.112;5.144;2023-03-14T12:46:57;9.20;;;1.80;;
66402;SDS011;53212;52.112;5.144;2023-03-14T12:49:32;10.00;;;2.50;;
66402;SDS011;53212;52.112;5.144;2023-03-14T12:52:13;11.20;;;2.10;;
66402;SDS011;53212;52.112;5.144;2023-03-14T12:57:40;8.90;;;1.70;;
66402;SDS011;53212;52.112;5.144;2023-03-14T13:00:20;8.40;;;2.50;;
66402;SDS011;53212;52.112;5.144;2023-03-14T13:02:48;7.30;;;2.00;;
66402;SDS011;53212;52.112;5.144;2023-03-14T13:05:17;5.60;;;1.80;;
66402;SDS011;53212;52.112;5.144;2023-03-14T13:10:20;6.60;;;2.00;;
66402;SDS011;53212;52.112;5.144;2023-03-14T13:13:21;8.40;;;1.90;;
66402;SDS011;53212;52.112;5.144;2023-03-14T13:15:54;8.80;;;1.60;;
66402;SDS011;53212;52.112;5.144;2023-03-14T13:21:20;5.50;;;1.80;;
66402;SDS011;53212;52.112;5.144;2023-03-14T13:26:47;7.70;;;1.60;;
66402;SDS011;53212;52.112;5.144;2023-03-14T13:29:23;7.30;;;2.20;;
66402;SDS011;53212;52.112;5.144;2023-03-14T13:31:55;5.30;;;1.40;;
66402;SDS011;53212;52.112;5.144;2023-03-14T13:34:28;6.60;;;1.80;;
66402;SDS011;53212;52.112;5.144;2023-03-14T13:36:56;4.70;;;1.70;;
66402;SDS011;53212;52.112;5.144;2023-03-14T13:39:24;5.70;;;1.60;;
66402;SDS011;53212;52.112;5.144;2023-03-14T13:41:52;7.10;;;2.10;;
66402;SDS011;53212;52.112;5.144;2023-03-14T13:47:01;7.80;;;1.80;;
66402;SDS011;53212;52.112;5.144;2023-03-14T13:49:28;6.30;;;1.80;;
66402;SDS011;53212;52.112;5.144;2023-03-14T13:51:58;7.10;;;1.80;;
66402;SDS011;53212;52.112;5.144;2023-03-14T13:54:25;5.70;;;1.80;;
66402;SDS011;53212;52.112;5.144;2023-03-14T13:57:00;7.30;;;1.60;;
66402;SDS011;53212;52.112;5.144;2023-03-14T13:59:28;6.90;;;1.80;;
66402;SDS011;53212;52.112;5.144;2023-03-14T14:01:56;8.20;;;1.70;;
66402;SDS011;53212;52.112;5.144;2023-03-14T14:04:24;7.10;;;1.60;;
66402;SDS011;53212;52.112;5.144;2023-03-14T14:07:01;9.10;;;2.00;;
66402;SDS011;53212;52.112;5.144;2023-03-14T14:09:40;9.70;;;1.90;;
66402;SDS011;53212;52.112;5.144;2023-03-14T14:17:35;7.50;;;2.00;;
66402;SDS011;53212;52.112;5.144;2023-03-14T14:20:05;4.30;;;1.70;;
66402;SDS011;53212;52.112;5.144;2023-03-14T14:22:33;6.60;;;1.40;;
66402;SDS011;53212;52.112;5.144;2023-03-14T14:24:59;7.50;;;2.00;;
66402;SDS011;53212;52.112;5.144;2023-03-14T14:27:39;4.80;;;1.40;;
66402;SDS011;53212;52.112;5.144;2023-03-14T14:32:42;3.40;;;1.70;;
66402;SDS011;53212;52.112;5.144;2023-03-14T14:35:55;6.50;;;1.50;;
66402;SDS011;53212;52.112;5.144;2023-03-14T14:37:58;6.60;;;1.60;;
66402;SDS011;53212;52.112;5.144;2023-03-14T14:40:26;7.00;;;1.80;;
66402;SDS011;53212;52.112;5.144;2023-03-14T14:43:03;7.90;;;1.80;;
66402;SDS011;53212;52.112;5.144;2023-03-14T14:45:29;8.60;;;1.90;;
66402;SDS011;53212;52.112;5.144;2023-03-14T14:48:13;7.80;;;1.80;;
66402;SDS011;53212;52.112;5.144;2023-03-14T14:53:47;6.70;;;2.20;;
66402;SDS011;53212;52.112;5.144;2023-03-14T14:56:27;6.60;;;2.00;;
66402;SDS011;53212;52.112;5.144;2023-03-14T14:58:58;4.40;;;1.70;;
66402;SDS011;53212;52.112;5.144;2023-03-14T15:01:34;9.50;;;2.00;;
66402;SDS011;53212;52.112;5.144;2023-03-14T15:04:04;10.40;;;2.00;;
66402;SDS011;53212;52.112;5.144;2023-03-14T15:06:37;4.80;;;1.60;;
66402;SDS011;53212;52.112;5.144;2023-03-14T15:09:04;5.60;;;1.70;;
66402;SDS011;53212;52.112;5.144;2023-03-14T15:11:30;5.40;;;1.60;;
66402;SDS011;53212;52.112;5.144;2023-03-14T15:13:55;7.40;;;1.90;;
66402;SDS011;53212;52.112;5.144;2023-03-14T15:16:28;6.90;;;1.50;;
66402;SDS011;53212;52.112;5.144;2023-03-14T15:18:56;5.70;;;1.70;;
66402;SDS011;53212;52.112;5.144;2023-03-14T15:21:24;7.50;;;2.00;;
66402;SDS011;53212;52.112;5.144;2023-03-14T15:23:52;5.80;;;2.30;;
66402;SDS011;53212;52.112;5.144;2023-03-14T15:26:19;4.80;;;1.40;;
66402;SDS011;53212;52.112;5.144;2023-03-14T15:28:46;5.00;;;1.60;;
66402;SDS011;53212;52.112;5.144;2023-03-14T15:31:13;5.80;;;1.40;;
66402;SDS011;53212;52.112;5.144;2023-03-14T15:33:40;5.80;;;1.70;;
66402;SDS011;53212;52.112;5.144;2023-03-14T15:36:26;5.40;;;1.60;;
66402;SDS011;53212;52.112;5.144;2023-03-14T15:38:54;5.00;;;1.40;;
66402;SDS011;53212;52.112;5.144;2023-03-14T15:41:20;8.30;;;1.70;;
66402;SDS011;53212;52.112;5.144;2023-03-14T15:43:47;7.90;;;1.60;;
66402;SDS011;53212;52.112;5.144;2023-03-14T15:46:13;5.10;;;1.20;;
66402;SDS011;53212;52.112;5.144;2023-03-14T15:48:40;8.90;;;1.70;;
66402;SDS011;53212;52.112;5.144;2023-03-14T15:51:05;4.60;;;1.50;;
66402;SDS011;53212;52.112;5.144;2023-03-14T15:53:31;10.50;;;1.60;;
66402;SDS011;53212;52.112;5.144;2023-03-14T15:55:57;9.60;;;1.70;;
66402;SDS011;53212;52.112;5.144;2023-03-14T15:58:23;8.00;;;1.50;;
66402;SDS011;53212;52.112;5.144;2023-03-14T16:00:49;8.20;;;1.80;;
66402;SDS011;53212;52.112;5.144;2023-03-14T16:03:15;6.30;;;1.80;;
66402;SDS011;53212;52.112;5.144;2023-03-14T16:05:40;6.70;;;1.70;;
66402;SDS011;53212;52.112;5.144;2023-03-14T16:08:06;11.60;;;2.20;;
66402;SDS011;53212;52.112;5.144;2023-03-14T16:10:32;11.70;;;1.90;;
66402;SDS011;53212;52.112;5.144;2023-03-14T16:12:58;7.50;;;1.90;;
66402;SDS011;53212;52.112;5.144;2023-03-14T16:15:24;7.90;;;1.90;;
66402;SDS011;53212;52.112;5.144;2023-03-14T16:17:53;10.10;;;1.80;;
66402;SDS011;53212;52.112;5.144;2023-03-14T16:20:19;13.90;;;2.50;;
66402;SDS011;53212;52.112;5.144;2023-03-14T16:22:45;11.80;;;2.10;;
66402;SDS011;53212;52.112;5.144;2023-03-14T16:25:11;7.30;;;2.20;;
66402;SDS011;53212;52.112;5.144;2023-03-14T16:27:37;10.80;;;2.20;;
66402;SDS011;53212;52.112;5.144;2023-03-14T16:30:03;9.10;;;2.10;;
66402;SDS011;53212;52.112;5.144;2023-03-14T16:32:29;6.90;;;1.80;;
66402;SDS011;53212;52.112;5.144;2023-03-14T16:34:54;9.10;;;1.70;;
66402;SDS011;53212;52.112;5.144;2023-03-14T16:37:22;4.00;;;1.60;;